Terminal Aerodrome Forecast
Issued by NWS Sterling, VA

Current Version | Previous Version | Graphics & Text | Print | Product List | Glossary On
Versions: 1 2 3 4 5 6 7 8 9 10 11 12 13 14 15
000
FTUS41 KLWX 271121
TAFMRB
TAF
KMRB 271121Z 2712/2812 35006KT P6SM FEW090
     FM271500 32010G18KT P6SM -SN BKN035
     FM272100 32012KT P6SM SCT035
     FM280100 32008KT P6SM BKN150
     FM280600 36003KT P6SM BKN150=

USA.gov is the U.S. government's official web portal to all federal, state and local government web resources and services.